CheckWX is a tool to help pilots better visualize weather data.  It is not intended as a substitute for an official pre-flight weather briefing.

21:43:05 UTC

NCRG TAF
Rarotonga International Airport
Avarua, Samoa
TAF NCRG 201724Z 2018/2118 15006KT 9999 FEW020 PROB30 TEMPO 2018/2022 5000 SHRA BKN015 PROB30 TEMPO 2112/2118 5000 SHRA BKN015

Mar-20@
18:00 UTC

Mar-20 @ 18:00 UTC

Mar-21@
18:00 UTC

Mar-21 @ 18:00 UTC

TAF NCRG 201724Z 2018/2118 15006KT 9999 FEW020
Wind
  • 150° at 6 KTS
Cloud Levels
  • Few at 2,000' AGL

Mar-20@
18:00 UTC

Mar-20 @ 18:00 UTC

Mar-20@
22:00 UTC

Mar-20 @ 22:00 UTC

PROB30 TEMPO 2018/2022 5000 SHRA BKN015

Temporary - 30% Likelihood

Temporary - 30% Likelihood during this time.

Conditions
Rain
Cloud Levels
  • Broken at 1,500' AGL

Mar-21@
12:00 UTC

Mar-21 @ 12:00 UTC

Mar-21@
18:00 UTC

Mar-21 @ 18:00 UTC

PROB30 TEMPO 2112/2118 5000 SHRA BKN015

Temporary - 30% Likelihood

Temporary - 30% Likelihood during this time.

Conditions
Rain
Cloud Levels
  • Broken at 1,500' AGL